Time;durP1;ratioP1;P1;durP2;ratioP2;P2;SDS_P1;SDS_P2;PMS_P1;PMS_P2;Temp;Humidity;BMP_temperature;BMP_pressure;BME280_temperature;BME280_humidity;BME280_pressure;Samples;Min_cycle;Max_cycle;Signal;HPM_P1;HPM_P2
2021/05/21 00:03:35;;;;;;;;;;;14.60;70.90;;;;;;5074544;28;19961;-82
2021/05/21 00:06:04;;;;;;;;;;;14.60;70.60;;;;;;5056048;28;19912;-82
2021/05/21 00:08:29;;;;;;;;;;;14.60;70.20;;;;;;5055755;28;19916;-83
2021/05/21 00:10:55;;;;;;;;;;;14.60;69.90;;;;;;5056075;28;19908;-82
2021/05/21 00:13:21;;;;;;;;;;;14.60;71.00;;;;;;5055997;28;19908;-83
2021/05/21 00:15:46;;;;;;;;;;;14.60;71.00;;;;;;5056379;28;19916;-83
2021/05/21 00:18:17;;;;;;;;;;;14.60;71.00;;;;;;5056401;28;19915;-83
2021/05/21 00:20:45;;;;;;;;;;;14.60;70.80;;;;;;5059255;28;19908;-82
2021/05/21 00:23:11;;;;;;;;;;;14.60;70.70;;;;;;5059538;28;19961;-82
2021/05/21 00:25:36;;;;;;;;;;;14.60;70.70;;;;;;5059285;28;19912;-82
2021/05/21 00:28:02;;;;;;;;;;;14.60;70.70;;;;;;5059305;28;19983;-82
2021/05/21 00:30:28;;;;;;;;;;;14.60;70.70;;;;;;5059332;28;19916;-82
2021/05/21 00:32:53;;;;;;;;;;;14.60;70.80;;;;;;5059556;28;19908;-82
2021/05/21 00:35:19;;;;;;;;;;;14.60;70.60;;;;;;5059229;28;19935;-82
2021/05/21 00:37:46;;;;;;;;;;;14.60;71.20;;;;;;5059173;28;19908;-82
2021/05/21 00:40:11;;;;;;;;;;;14.60;70.70;;;;;;5058746;28;19915;-82
2021/05/21 00:42:37;;;;;;;;;;;14.60;70.50;;;;;;5059284;28;20005;-82
2021/05/21 00:45:03;;;;;;;;;;;14.60;70.10;;;;;;5059259;28;19908;-82
2021/05/21 00:47:29;;;;;;;;;;;14.60;70.00;;;;;;5059482;28;19908;-82
2021/05/21 00:49:55;;;;;;;;;;;14.60;70.00;;;;;;5058936;28;19912;-82
2021/05/21 00:52:23;;;;;;;;;;;14.60;69.90;;;;;;5058792;28;19905;-83
2021/05/21 00:54:50;;;;;;;;;;;14.60;69.80;;;;;;5058833;28;19905;-83
2021/05/21 00:57:16;;;;;;;;;;;14.60;69.90;;;;;;5058636;28;19963;-83
2021/05/21 00:59:41;;;;;;;;;;;14.60;69.60;;;;;;5058668;28;19904;-82
2021/05/21 01:02:10;;;;;;;;;;;14.60;69.80;;;;;;5058701;28;19908;-82
2021/05/21 01:04:36;;;;;;;;;;;14.60;69.60;;;;;;5058852;28;19905;-82
2021/05/21 01:10:05;;;;;;;;;;;14.60;69.50;;;;;;5076706;28;19961;-83
2021/05/21 01:12:33;;;;;;;;;;;14.60;69.10;;;;;;5058577;28;19904;-82
2021/05/21 01:15:00;;;;;;;;;;;14.60;69.00;;;;;;5058696;28;19904;-81
2021/05/21 01:17:25;;;;;;;;;;;14.60;69.40;;;;;;5058457;28;20275;-81
2021/05/21 01:19:51;;;;;;;;;;;14.60;69.20;;;;;;5058161;28;19904;-82
2021/05/21 01:22:17;;;;;;;;;;;14.60;69.30;;;;;;5055302;28;19912;-82
2021/05/21 01:24:43;;;;;;;;;;;14.60;69.20;;;;;;5058295;28;19927;-82
2021/05/21 01:27:10;;;;;;;;;;;14.70;69.30;;;;;;5057985;28;19965;-82
2021/05/21 01:29:42;;;;;;;;;;;14.70;69.10;;;;;;5058076;28;19904;-82
2021/05/21 01:32:09;;;;;;;;;;;14.60;68.70;;;;;;5056331;28;19928;-82
2021/05/21 01:34:35;;;;;;;;;;;14.70;68.70;;;;;;5058449;28;19966;-82
2021/05/21 01:37:01;;;;;;;;;;;14.70;68.60;;;;;;5058051;28;19909;-82
2021/05/21 01:39:34;;;;;;;;;;;14.70;68.50;;;;;;5058332;28;19912;-83
2021/05/21 01:41:59;;;;;;;;;;;14.70;68.90;;;;;;5057790;28;20359;-82
2021/05/21 01:44:25;;;;;;;;;;;14.70;68.70;;;;;;5057900;28;19954;-82
2021/05/21 01:46:51;;;;;;;;;;;14.60;68.40;;;;;;5057992;28;20342;-82
2021/05/21 01:49:16;;;;;;;;;;;14.60;68.50;;;;;;5057897;28;19914;-82
2021/05/21 01:54:45;;;;;;;;;;;14.60;68.70;;;;;;5075335;28;19910;-82
2021/05/21 01:57:11;;;;;;;;;;;14.60;68.70;;;;;;5053674;28;20015;-83
2021/05/21 01:59:37;;;;;;;;;;;14.70;68.70;;;;;;5054011;28;19913;-83
2021/05/21 02:02:06;;;;;;;;;;;14.60;68.70;;;;;;5053895;28;19963;-83
2021/05/21 02:04:32;;;;;;;;;;;14.60;68.70;;;;;;5055207;28;19916;-83
2021/05/21 02:06:58;;;;;;;;;;;14.60;68.80;;;;;;5055376;28;19908;-83
2021/05/21 02:09:24;;;;;;;;;;;14.60;68.70;;;;;;5053710;28;19915;-82
2021/05/21 02:11:50;;;;;;;;;;;14.60;68.80;;;;;;5053387;28;20011;-82
2021/05/21 02:14:16;;;;;;;;;;;14.60;68.90;;;;;;5053602;28;20013;-82
2021/05/21 02:16:41;;;;;;;;;;;14.60;69.20;;;;;;5053193;28;19919;-82
2021/05/21 02:19:07;;;;;;;;;;;14.50;69.70;;;;;;5053065;28;20275;-83
2021/05/21 02:21:33;;;;;;;;;;;14.40;70.40;;;;;;5053027;28;19909;-81
2021/05/21 02:24:00;;;;;;;;;;;14.30;70.90;;;;;;5053132;28;19909;-80
2021/05/21 02:26:26;;;;;;;;;;;14.10;71.20;;;;;;5053041;28;19947;-81
2021/05/21 02:28:51;;;;;;;;;;;14.10;71.70;;;;;;5052718;28;19954;-83
2021/05/21 02:31:18;;;;;;;;;;;14.00;72.90;;;;;;5052648;28;20288;-83
2021/05/21 02:33:43;;;;;;;;;;;13.80;73.20;;;;;;5052683;28;19913;-83
2021/05/21 02:36:09;;;;;;;;;;;13.70;73.10;;;;;;5052580;28;19919;-83
2021/05/21 02:38:34;;;;;;;;;;;13.60;73.40;;;;;;5053796;28;19908;-83
2021/05/21 02:41:00;;;;;;;;;;;13.60;73.60;;;;;;5052674;28;19909;-83
2021/05/21 02:43:25;;;;;;;;;;;13.50;73.60;;;;;;5053644;28;19908;-82
2021/05/21 02:45:51;;;;;;;;;;;13.40;73.70;;;;;;5054350;28;19916;-82
2021/05/21 02:48:16;;;;;;;;;;;13.40;74.30;;;;;;5052266;28;20378;-82
2021/05/21 02:50:43;;;;;;;;;;;13.30;74.60;;;;;;5052597;28;19995;-81
2021/05/21 02:53:09;;;;;;;;;;;13.20;75.10;;;;;;5052136;28;19909;-82
2021/05/21 02:55:35;;;;;;;;;;;13.00;75.80;;;;;;5052191;28;19913;-82
2021/05/21 02:58:02;;;;;;;;;;;12.80;76.10;;;;;;5052102;28;19967;-82
2021/05/21 03:00:28;;;;;;;;;;;12.70;76.70;;;;;;5052270;28;19951;-82
2021/05/21 03:02:53;;;;;;;;;;;12.60;77.00;;;;;;5052314;28;19908;-82
2021/05/21 03:05:22;;;;;;;;;;;12.50;77.40;;;;;;5052352;28;20285;-81
2021/05/21 03:07:55;;;;;;;;;;;12.40;77.50;;;;;;5052176;28;19932;-82
2021/05/21 03:10:22;;;;;;;;;;;12.40;77.90;;;;;;5052269;28;20276;-81
2021/05/21 03:12:48;;;;;;;;;;;12.30;78.20;;;;;;5052001;28;20014;-81
2021/05/21 03:15:13;;;;;;;;;;;12.20;78.70;;;;;;5051908;28;19955;-81
2021/05/21 03:17:39;;;;;;;;;;;12.10;79.10;;;;;;5051984;28;19909;-81
2021/05/21 03:20:05;;;;;;;;;;;12.00;79.70;;;;;;5052597;28;19909;-81
2021/05/21 03:22:30;;;;;;;;;;;11.90;80.10;;;;;;5051679;28;19909;-81
2021/05/21 03:24:57;;;;;;;;;;;11.90;80.20;;;;;;5051768;28;20367;-81
2021/05/21 03:27:22;;;;;;;;;;;11.80;80.20;;;;;;5052064;28;19908;-81
2021/05/21 03:29:48;;;;;;;;;;;11.80;79.90;;;;;;5051944;28;19915;-81
2021/05/21 03:32:13;;;;;;;;;;;11.80;79.80;;;;;;5052358;28;19947;-82
2021/05/21 03:34:39;;;;;;;;;;;11.80;80.00;;;;;;5052002;28;19920;-82
2021/05/21 03:37:05;;;;;;;;;;;11.80;79.80;;;;;;5052108;28;20016;-82
2021/05/21 03:39:31;;;;;;;;;;;11.80;79.90;;;;;;5052011;28;19908;-81
2021/05/21 03:41:56;;;;;;;;;;;11.80;79.70;;;;;;5051829;28;19920;-82
2021/05/21 03:44:24;;;;;;;;;;;11.80;79.90;;;;;;5051749;28;20031;-82
2021/05/21 03:46:50;;;;;;;;;;;11.80;79.80;;;;;;5051875;28;19909;-81
2021/05/21 03:49:16;;;;;;;;;;;11.90;79.90;;;;;;5051947;28;20429;-81
2021/05/21 03:51:42;;;;;;;;;;;11.90;79.90;;;;;;5051815;28;19909;-82
2021/05/21 03:54:08;;;;;;;;;;;11.90;79.70;;;;;;5052600;28;20003;-81
2021/05/21 03:56:33;;;;;;;;;;;11.90;79.90;;;;;;5058498;28;19921;-82
2021/05/21 03:59:00;;;;;;;;;;;11.90;79.70;;;;;;5059426;28;19959;-81
2021/05/21 04:01:25;;;;;;;;;;;11.90;79.80;;;;;;5059433;28;19908;-81
2021/05/21 04:03:51;;;;;;;;;;;11.90;79.70;;;;;;5058963;28;19987;-82
2021/05/21 04:06:16;;;;;;;;;;;11.80;79.60;;;;;;5059009;28;19912;-81
2021/05/21 04:08:42;;;;;;;;;;;11.80;79.60;;;;;;5058855;28;20272;-82
2021/05/21 04:11:10;;;;;;;;;;;11.80;79.50;;;;;;5058849;28;20351;-82
2021/05/21 04:13:36;;;;;;;;;;;11.80;79.50;;;;;;5058771;28;19919;-82
2021/05/21 04:16:02;;;;;;;;;;;11.90;79.50;;;;;;5059967;28;19916;-82
2021/05/21 04:18:27;;;;;;;;;;;11.90;80.10;;;;;;5058992;28;19995;-82
2021/05/21 04:20:53;;;;;;;;;;;11.90;79.30;;;;;;5058776;28;20279;-82
2021/05/21 04:23:18;;;;;;;;;;;11.90;79.20;;;;;;5076541;28;19934;-82
2021/05/21 04:25:44;;;;;;;;;;;12.00;79.10;;;;;;5058664;28;20348;-82
2021/05/21 04:28:10;;;;;;;;;;;12.00;79.00;;;;;;5058601;28;19995;-81
2021/05/21 04:30:36;;;;;;;;;;;12.00;78.90;;;;;;5058453;28;19916;-81
2021/05/21 04:33:02;;;;;;;;;;;12.00;78.80;;;;;;5076441;28;19912;-82
2021/05/21 04:35:27;;;;;;;;;;;12.10;78.80;;;;;;5058403;28;19912;-82
2021/05/21 04:37:53;;;;;;;;;;;12.20;78.70;;;;;;5058391;28;20363;-82
2021/05/21 04:40:19;;;;;;;;;;;12.20;78.50;;;;;;5058598;28;20244;-82
2021/05/21 04:42:47;;;;;;;;;;;12.30;78.30;;;;;;5058988;28;19955;-82
2021/05/21 04:45:13;;;;;;;;;;;12.30;78.20;;;;;;5058637;28;19908;-83
2021/05/21 04:47:39;;;;;;;;;;;12.40;78.10;;;;;;5076352;28;20417;-82
2021/05/21 04:50:05;;;;;;;;;;;12.40;78.00;;;;;;5058810;28;20383;-83
2021/05/21 04:52:31;;;;;;;;;;;12.50;78.00;;;;;;5058433;28;19951;-82
2021/05/21 04:54:56;;;;;;;;;;;12.50;77.90;;;;;;5058194;28;19909;-83
2021/05/21 05:00:26;;;;;;;;;;;12.50;77.80;;;;;;5053664;28;19959;-83
2021/05/21 05:02:52;;;;;;;;;;;12.50;77.80;;;;;;5058678;28;20263;-84
2021/05/21 05:05:19;;;;;;;;;;;12.50;77.80;;;;;;5058426;28;19908;-83
2021/05/21 05:07:45;;;;;;;;;;;12.50;77.90;;;;;;5059356;28;19951;-83
2021/05/21 05:10:11;;;;;;;;;;;12.50;77.90;;;;;;5058145;28;19909;-82
2021/05/21 05:15:43;;;;;;;;;;;12.50;77.70;;;;;;5076658;28;19935;-80
2021/05/21 05:21:16;;;;;;;;;;;12.50;77.50;;;;;;5076392;28;19923;-84
2021/05/21 05:23:42;;;;;;;;;;;12.50;77.50;;;;;;5058780;28;19908;-83
2021/05/21 05:26:09;;;;;;;;;;;12.50;77.50;;;;;;5058414;28;19974;-83
2021/05/21 05:28:47;;;;;;;;;;;12.50;77.50;;;;;;5057966;28;20336;-86
2021/05/21 05:31:13;;;;;;;;;;;12.50;77.40;;;;;;5058145;28;19954;-84
2021/05/21 05:33:44;;;;;;;;;;;12.50;77.40;;;;;;5058736;28;19912;-85
2021/05/21 05:36:17;;;;;;;;;;;12.50;77.50;;;;;;5058102;28;20007;-85
2021/05/21 05:41:47;;;;;;;;;;;12.50;77.70;;;;;;5076008;28;19915;-86
2021/05/21 05:44:14;;;;;;;;;;;12.50;77.60;;;;;;5057595;28;19958;-83
2021/05/21 05:46:39;;;;;;;;;;;12.40;77.50;;;;;;5057711;28;19915;-85
2021/05/21 05:49:05;;;;;;;;;;;12.50;77.20;;;;;;5057817;28;19912;-86
2021/05/21 05:57:42;;;;;;;;;;;12.50;75.90;;;;;;5075652;28;19970;-86
2021/05/21 06:03:12;;;;;;;;;;;12.50;75.10;;;;;;5059285;28;19986;-85
2021/05/21 06:05:38;;;;;;;;;;;12.60;74.90;;;;;;5057567;28;19913;-85
2021/05/21 06:08:05;;;;;;;;;;;12.60;74.90;;;;;;5058174;28;19909;-85
2021/05/21 06:10:36;;;;;;;;;;;12.60;74.80;;;;;;5057646;28;19915;-85
2021/05/21 06:13:10;;;;;;;;;;;12.60;73.60;;;;;;5057242;28;20007;-84
2021/05/21 06:18:41;;;;;;;;;;;12.60;72.80;;;;;;5075563;28;19946;-85
2021/05/21 06:24:12;;;;;;;;;;;12.70;72.50;;;;;;5076198;28;20267;-85
2021/05/21 06:26:54;;;;;;;;;;;12.80;72.10;;;;;;5057743;28;19919;-84
2021/05/21 06:29:42;;;;;;;;;;;12.80;71.90;;;;;;5057650;28;19908;-86
2021/05/21 06:32:10;;;;;;;;;;;12.80;71.10;;;;;;5057245;28;19913;-85
2021/05/21 06:34:39;;;;;;;;;;;12.90;69.40;;;;;;5056052;28;19908;-85
2021/05/21 06:37:05;;;;;;;;;;;12.80;69.00;;;;;;5057348;28;20356;-85
2021/05/21 06:39:31;;;;;;;;;;;12.90;69.40;;;;;;5057003;28;19908;-85
2021/05/21 06:41:56;;;;;;;;;;;12.90;68.90;;;;;;5056824;28;19987;-85
2021/05/21 06:44:34;;;;;;;;;;;13.00;67.80;;;;;;5056876;28;19908;-86
2021/05/21 06:50:09;;;;;;;;;;;13.10;67.10;;;;;;5074707;28;19954;-85
2021/05/21 06:52:38;;;;;;;;;;;13.10;67.00;;;;;;5056985;28;19931;-85
2021/05/21 06:58:19;;;;;;;;;;;13.20;65.30;;;;;;5075054;28;19977;-86
2021/05/21 07:00:51;;;;;;;;;;;13.20;66.20;;;;;;5056829;28;19956;-85
2021/05/21 07:03:25;;;;;;;;;;;13.30;65.80;;;;;;5053454;28;19960;-85
2021/05/21 07:09:34;;;;;;;;;;;13.30;65.40;;;;;;5055214;28;19915;-85
2021/05/21 07:18:14;;;;;;;;;;;13.50;65.50;;;;;;5054306;28;19958;-85
2021/05/21 07:24:09;;;;;;;;;;;13.60;64.10;;;;;;5055044;28;19931;-85
2021/05/21 07:26:45;;;;;;;;;;;13.70;64.20;;;;;;5053277;28;19994;-85
2021/05/21 07:29:35;;;;;;;;;;;13.70;64.20;;;;;;5055586;28;19908;-85
2021/05/21 07:35:14;;;;;;;;;;;13.70;64.20;;;;;;5058866;28;20280;-85
2021/05/21 07:38:05;;;;;;;;;;;13.80;64.20;;;;;;5057200;28;19936;-85
2021/05/21 07:44:03;;;;;;;;;;;14.10;63.70;;;;;;5058536;28;19955;-86
2021/05/21 07:56:30;;;;;;;;;;;14.40;62.40;;;;;;5057905;28;19963;-85
2021/05/21 08:08:36;;;;;;;;;;;14.30;65.10;;;;;;5057399;28;19951;-83
2021/05/21 08:11:02;;;;;;;;;;;14.10;68.20;;;;;;5056040;28;19999;-82
2021/05/21 08:13:30;;;;;;;;;;;13.80;69.00;;;;;;5055864;28;19913;-83
2021/05/21 08:15:59;;;;;;;;;;;13.40;69.80;;;;;;5055444;28;19919;-83
2021/05/21 08:18:27;;;;;;;;;;;13.20;70.30;;;;;;5055313;28;19999;-84
2021/05/21 08:20:55;;;;;;;;;;;13.00;70.30;;;;;;5056177;28;19992;-83
2021/05/21 08:23:23;;;;;;;;;;;13.00;70.50;;;;;;5055762;28;19909;-84
2021/05/21 08:25:49;;;;;;;;;;;13.00;70.70;;;;;;5055662;28;19974;-84
2021/05/21 08:28:17;;;;;;;;;;;13.10;70.40;;;;;;5055605;28;19916;-84
2021/05/21 08:31:04;;;;;;;;;;;13.10;70.20;;;;;;5056570;28;19916;-84
2021/05/21 08:33:30;;;;;;;;;;;13.00;70.00;;;;;;5057869;28;20371;-84
2021/05/21 08:36:20;;;;;;;;;;;13.00;70.30;;;;;;5056993;28;19963;-84
2021/05/21 08:38:46;;;;;;;;;;;12.90;70.50;;;;;;5056169;28;19908;-84
2021/05/21 08:41:24;;;;;;;;;;;12.90;70.90;;;;;;5055809;28;19916;-84
2021/05/21 08:47:01;;;;;;;;;;;13.10;71.70;;;;;;5057600;28;19932;-85
2021/05/21 08:52:54;;;;;;;;;;;13.30;71.80;;;;;;5058456;28;20004;-85
2021/05/21 08:55:25;;;;;;;;;;;13.40;71.80;;;;;;5056461;28;20007;-85
2021/05/21 09:01:23;;;;;;;;;;;13.60;70.40;;;;;;5058226;28;19931;-85
2021/05/21 09:03:59;;;;;;;;;;;13.80;70.20;;;;;;5056052;28;19931;-85
2021/05/21 09:06:40;;;;;;;;;;;14.10;69.70;;;;;;5056000;28;19916;-85
2021/05/21 09:12:25;;;;;;;;;;;14.40;67.40;;;;;;5057739;28;20012;-85
2021/05/21 09:24:35;;;;;;;;;;;14.90;63.90;;;;;;5057973;28;19939;-84
2021/05/21 09:27:00;;;;;;;;;;;14.80;66.10;;;;;;5055216;28;19909;-83
2021/05/21 09:32:30;;;;;;;;;;;13.90;68.70;;;;;;5056694;28;19931;-83
2021/05/21 09:35:21;;;;;;;;;;;13.50;69.90;;;;;;5055087;28;19959;-83
2021/05/21 09:37:55;;;;;;;;;;;13.30;70.70;;;;;;5054236;28;20406;-83
2021/05/21 09:40:21;;;;;;;;;;;13.30;71.70;;;;;;5055130;28;19955;-83
2021/05/21 09:42:50;;;;;;;;;;;13.30;72.50;;;;;;5056074;28;19947;-83
2021/05/21 09:45:34;;;;;;;;;;;13.30;73.00;;;;;;5054642;28;19975;-84
2021/05/21 09:51:15;;;;;;;;;;;13.40;72.60;;;;;;5056804;28;19915;-84
2021/05/21 09:57:09;;;;;;;;;;;13.70;72.70;;;;;;5057017;28;19966;-84
2021/05/21 10:12:40;;;;;;;;;;;14.70;69.10;;;;;;5015445;28;19956;-85
2021/05/21 10:46:16;;;;;;;;;;;15.50;62.90;;;;;;4977148;28;19917;-91
2021/05/21 10:52:02;;;;;;;;;;;15.50;62.00;;;;;;4957398;29;19921;-91
2021/05/21 11:01:28;;;;;;;;;;;15.90;63.40;;;;;;4956264;29;19985;-86
2021/05/21 11:21:00;;;;;;;;;;;15.70;62.80;;;;;;4975171;28;19953;-86
2021/05/21 11:45:18;;;;;;;;;;;16.40;63.30;;;;;;4974548;28;20285;-83
2021/05/21 11:47:45;;;;;;;;;;;15.80;66.00;;;;;;4957615;28;20414;-84
2021/05/21 11:50:12;;;;;;;;;;;15.20;68.10;;;;;;4957487;28;19910;-84
2021/05/21 11:52:37;;;;;;;;;;;14.60;69.70;;;;;;4958172;28;19910;-84
2021/05/21 11:55:04;;;;;;;;;;;14.30;70.50;;;;;;5036137;28;19909;-84
2021/05/21 12:01:08;;;;;;;;;;;14.00;72.10;;;;;;5055627;28;19931;-84
2021/05/21 12:03:45;;;;;;;;;;;14.10;72.20;;;;;;4957798;28;19994;-83
2021/05/21 12:06:13;;;;;;;;;;;14.10;73.00;;;;;;4974098;28;19910;-85
2021/05/21 12:08:41;;;;;;;;;;;14.10;73.00;;;;;;4990475;28;20005;-86
2021/05/21 12:14:35;;;;;;;;;;;;;;;;;;;;;
2021/05/21 12:23:26;;;;;;;;;;;;;;;;;;;;;
2021/05/21 12:30:01;;;;;;;;;;;14.80;72.00;;;;;;4998027;28;19936;-86
2021/05/21 12:36:00;;;;;;;;;;;15.20;71.10;;;;;;4997984;28;19920;-86
2021/05/21 12:41:34;;;;;;;;;;;15.50;69.90;;;;;;5078731;28;19958;-86
2021/05/21 13:00:40;;;;;;;;;;;;;;;;;;;;;
2021/05/21 13:07:17;;;;;;;;;;;;;;;;;;;;;
2021/05/21 13:22:09;;;;;;;;;;;;;;;;;;;;;
2021/05/21 13:24:38;;;;;;;;;;;15.00;66.60;;;;;;4937929;29;20389;-85
2021/05/21 13:27:04;;;;;;;;;;;14.90;65.90;;;;;;4938291;29;19971;-85
2021/05/21 13:32:35;;;;;;;;;;;14.70;66.40;;;;;;4938591;29;19977;-85
2021/05/21 13:35:06;;;;;;;;;;;14.70;67.20;;;;;;4956971;29;19966;-85
2021/05/21 13:41:03;;;;;;;;;;;15.00;67.50;;;;;;4957410;29;19989;-85
2021/05/21 13:44:15;;;;;;;;;;;15.10;67.00;;;;;;4956891;29;20358;-85
2021/05/21 13:50:19;;;;;;;;;;;15.60;67.20;;;;;;4900195;29;20005;-85
2021/05/21 14:08:40;;;;;;;;;;;16.20;63.30;;;;;;4957297;29;20381;-85
2021/05/21 14:11:19;;;;;;;;;;;;;;;;;;;;;
2021/05/21 14:16:59;;;;;;;;;;;16.00;62.10;;;;;;4976884;28;19972;-86
2021/05/21 14:19:25;;;;;;;;;;;16.10;62.80;;;;;;4976574;28;20394;-84
2021/05/21 14:25:31;;;;;;;;;;;16.30;62.80;;;;;;5015569;28;19915;-85
2021/05/21 14:28:03;;;;;;;;;;;16.60;62.40;;;;;;5014543;28;19971;-86
2021/05/21 14:30:30;;;;;;;;;;;16.80;61.80;;;;;;5015020;28;19909;-86
2021/05/21 14:32:58;;;;;;;;;;;17.00;59.40;;;;;;5014184;28;20352;-85
2021/05/21 14:35:28;;;;;;;;;;;17.20;58.60;;;;;;5013989;28;19910;-86
2021/05/21 14:37:55;;;;;;;;;;;17.30;57.30;;;;;;5013699;28;19913;-85
2021/05/21 14:40:21;;;;;;;;;;;17.40;57.60;;;;;;5014271;28;19909;-86
2021/05/21 14:42:46;;;;;;;;;;;17.50;57.20;;;;;;4998068;28;20428;-85
2021/05/21 14:45:13;;;;;;;;;;;17.60;57.30;;;;;;5013836;28;19910;-86
2021/05/21 14:47:39;;;;;;;;;;;17.70;57.00;;;;;;5014221;28;19937;-86
2021/05/21 14:53:08;;;;;;;;;;;18.00;56.60;;;;;;5056151;28;19912;-86
2021/05/21 14:55:34;;;;;;;;;;;18.30;56.10;;;;;;5054712;28;19908;-86
2021/05/21 15:01:09;;;;;;;;;;;18.20;55.80;;;;;;5056038;28;19915;-86
2021/05/21 15:03:35;;;;;;;;;;;18.20;55.80;;;;;;5054599;28;19959;-86
2021/05/21 15:09:05;;;;;;;;;;;17.90;56.10;;;;;;5055869;28;19991;-85
2021/05/21 15:11:33;;;;;;;;;;;17.70;56.20;;;;;;5053991;28;20368;-86
2021/05/21 15:14:02;;;;;;;;;;;17.60;54.90;;;;;;5054356;28;19948;-85
2021/05/21 15:25:39;;;;;;;;;;;16.40;61.20;;;;;;5055217;28;19990;-84
2021/05/21 15:28:05;;;;;;;;;;;15.40;66.20;;;;;;5053692;28;19916;-84
2021/05/21 15:30:50;;;;;;;;;;;14.50;66.90;;;;;;5053522;28;19908;-85
2021/05/21 15:33:20;;;;;;;;;;;14.30;68.30;;;;;;5054021;28;20291;-86
2021/05/21 15:35:46;;;;;;;;;;;14.30;68.80;;;;;;5053723;28;19913;-86
2021/05/21 15:38:14;;;;;;;;;;;14.50;69.20;;;;;;5054487;28;20348;-86
2021/05/21 15:46:34;;;;;;;;;;;14.90;69.40;;;;;;5055335;28;20012;-87
2021/05/21 15:49:48;;;;;;;;;;;15.10;69.10;;;;;;5054100;28;20263;-87
2021/05/21 15:59:32;;;;;;;;;;;16.10;67.60;;;;;;5059558;28;19908;-87
2021/05/21 16:01:58;;;;;;;;;;;16.30;66.90;;;;;;5058117;28;19951;-88
2021/05/21 16:04:25;;;;;;;;;;;16.50;66.50;;;;;;5058292;28;20440;-87
2021/05/21 16:06:50;;;;;;;;;;;16.70;63.90;;;;;;5058970;28;19910;-87
2021/05/21 16:09:16;;;;;;;;;;;16.80;64.40;;;;;;5058692;28;20275;-87
2021/05/21 16:11:46;;;;;;;;;;;16.90;64.50;;;;;;5059774;28;19919;-89
2021/05/21 16:14:12;;;;;;;;;;;17.10;64.40;;;;;;5057461;28;19913;-85
2021/05/21 16:20:09;;;;;;;;;;;17.40;64.00;;;;;;5060642;28;20347;-87
2021/05/21 16:22:37;;;;;;;;;;;17.50;63.50;;;;;;5061572;28;19951;-88
2021/05/21 16:28:07;;;;;;;;;;;17.80;62.90;;;;;;5060132;28;19935;-86
2021/05/21 16:30:33;;;;;;;;;;;17.90;61.70;;;;;;5058227;28;19924;-87
2021/05/21 16:32:59;;;;;;;;;;;18.00;59.70;;;;;;5057865;28;19908;-86
2021/05/21 16:35:25;;;;;;;;;;;18.00;57.40;;;;;;5057417;28;19916;-86
2021/05/21 16:37:51;;;;;;;;;;;18.00;57.10;;;;;;5057364;28;19909;-85
2021/05/21 16:40:16;;;;;;;;;;;17.80;55.40;;;;;;5057292;28;19919;-85
2021/05/21 16:42:42;;;;;;;;;;;17.70;55.00;;;;;;5056971;28;19924;-84
2021/05/21 16:45:08;;;;;;;;;;;17.60;55.30;;;;;;5056687;28;19928;-85
2021/05/21 16:47:34;;;;;;;;;;;17.40;54.70;;;;;;5056948;28;19970;-85
2021/05/21 16:50:00;;;;;;;;;;;17.30;55.10;;;;;;5057863;28;20360;-86
2021/05/21 16:52:29;;;;;;;;;;;17.10;55.10;;;;;;5056698;28;19915;-86
2021/05/21 16:54:55;;;;;;;;;;;17.00;55.70;;;;;;5056871;28;19921;-85
2021/05/21 16:57:21;;;;;;;;;;;16.80;55.50;;;;;;5055762;28;19920;-85
2021/05/21 16:59:47;;;;;;;;;;;16.80;56.10;;;;;;5055995;28;20407;-85
2021/05/21 17:02:13;;;;;;;;;;;16.60;55.40;;;;;;5057015;28;20007;-86
2021/05/21 17:04:39;;;;;;;;;;;16.50;56.00;;;;;;5055850;28;20018;-84
2021/05/21 17:07:10;;;;;;;;;;;16.40;55.90;;;;;;5055747;28;20323;-85
2021/05/21 17:09:36;;;;;;;;;;;16.30;56.20;;;;;;5056111;28;19912;-86
2021/05/21 17:12:03;;;;;;;;;;;16.20;56.90;;;;;;5056128;28;20015;-83
2021/05/21 17:14:34;;;;;;;;;;;16.10;57.60;;;;;;5056059;28;19909;-86
2021/05/21 17:19:53;;;;;;;;;;;15.90;58.20;;;;;;5057540;28;19962;-86
2021/05/21 17:28:32;;;;;;;;;;;15.90;58.90;;;;;;5057259;28;19916;-84
2021/05/21 17:44:10;;;;;;;;;;;16.80;57.90;;;;;;5015013;28;19963;-86
2021/05/21 17:54:52;;;;;;;;;;;16.80;55.20;;;;;;5016058;28;19916;-84
2021/05/21 18:03:16;;;;;;;;;;;16.90;55.70;;;;;;5014398;28;19925;-84
2021/05/21 18:08:55;;;;;;;;;;;16.90;55.50;;;;;;5056951;28;20327;-85
2021/05/21 18:26:29;;;;;;;;;;;17.00;55.40;;;;;;5056389;28;19916;-86
2021/05/21 19:13:14;;;;;;;;;;;15.00;57.80;;;;;;4917956;29;19951;-90
2021/05/21 19:15:55;;;;;;;;;;;14.90;57.90;;;;;;4920565;29;20009;-89
2021/05/21 19:18:41;;;;;;;;;;;14.80;58.00;;;;;;4933990;28;19910;-90
2021/05/21 19:21:18;;;;;;;;;;;14.80;58.20;;;;;;4980763;28;19913;-90
2021/05/21 19:24:08;;;;;;;;;;;14.70;58.40;;;;;;4978891;28;19965;-89
2021/05/21 19:26:35;;;;;;;;;;;14.70;58.60;;;;;;4978863;28;19910;-90
2021/05/21 20:13:32;;;;;;;;;;;13.90;61.30;;;;;;5040182;28;19916;-89
2021/05/21 20:15:59;;;;;;;;;;;13.80;61.60;;;;;;5060037;28;19916;-89
2021/05/21 20:18:27;;;;;;;;;;;13.70;61.80;;;;;;5060011;28;19909;-89
2021/05/21 20:20:53;;;;;;;;;;;13.60;61.90;;;;;;5059710;28;19958;-90
2021/05/21 20:23:22;;;;;;;;;;;13.60;62.20;;;;;;5060597;28;19909;-89
2021/05/21 20:25:56;;;;;;;;;;;13.50;62.40;;;;;;5059283;28;19935;-89
2021/05/21 20:28:29;;;;;;;;;;;13.50;62.70;;;;;;5058545;28;19908;-89
2021/05/21 20:44:25;;;;;;;;;;;13.20;63.50;;;;;;5080646;28;19931;-89
2021/05/21 21:06:49;;;;;;;;;;;12.90;64.50;;;;;;5018920;28;20581;-89
2021/05/21 21:09:37;;;;;;;;;;;12.90;64.50;;;;;;5018363;28;20473;-90
2021/05/21 21:12:26;;;;;;;;;;;12.90;64.70;;;;;;5001555;28;19969;-89
2021/05/21 21:53:45;;;;;;;;;;;12.60;63.70;;;;;;4978819;28;19932;-90
2021/05/21 21:59:07;;;;;;;;;;;12.60;63.60;;;;;;4978893;28;20349;-91
2021/05/21 22:01:45;;;;;;;;;;;12.60;63.60;;;;;;4961780;28;19910;-89
2021/05/21 22:04:18;;;;;;;;;;;12.50;63.60;;;;;;4977779;28;19916;-90
2021/05/21 22:22:59;;;;;;;;;;;12.40;63.90;;;;;;5078767;28;20054;-90
2021/05/21 22:25:28;;;;;;;;;;;12.40;64.00;;;;;;5060842;28;20003;-89
2021/05/21 22:27:56;;;;;;;;;;;12.40;64.10;;;;;;5060278;28;19944;-90
2021/05/21 22:30:22;;;;;;;;;;;12.40;64.10;;;;;;5060852;28;19916;-89
2021/05/21 22:32:48;;;;;;;;;;;12.40;64.10;;;;;;5060958;28;19915;-90
2021/05/21 22:35:16;;;;;;;;;;;12.40;64.20;;;;;;5060245;28;20358;-89
2021/05/21 22:41:16;;;;;;;;;;;12.40;64.60;;;;;;5078817;28;20325;-89
2021/05/21 22:43:44;;;;;;;;;;;12.40;64.70;;;;;;5060070;28;19908;-88
2021/05/21 22:46:13;;;;;;;;;;;12.40;64.60;;;;;;5060795;28;19908;-89
2021/05/21 22:48:41;;;;;;;;;;;12.40;64.60;;;;;;5060550;28;19915;-88
2021/05/21 22:51:06;;;;;;;;;;;12.40;64.50;;;;;;5060231;28;19912;-89
2021/05/21 22:53:38;;;;;;;;;;;12.40;64.60;;;;;;5059684;28;19915;-90
2021/05/21 22:56:06;;;;;;;;;;;12.30;64.60;;;;;;5057163;28;20015;-88
2021/05/21 22:58:38;;;;;;;;;;;12.30;64.70;;;;;;5060256;28;20361;-88
2021/05/21 23:01:06;;;;;;;;;;;12.30;64.80;;;;;;5060367;28;20008;-89
2021/05/21 23:03:32;;;;;;;;;;;12.30;64.90;;;;;;5059885;28;19916;-89
2021/05/21 23:09:00;;;;;;;;;;;12.20;65.00;;;;;;5078229;28;20386;-88
2021/05/21 23:11:29;;;;;;;;;;;12.20;65.10;;;;;;5058976;28;19908;-88
2021/05/21 23:13:55;;;;;;;;;;;12.30;65.30;;;;;;5058620;28;19985;-88
2021/05/21 23:16:21;;;;;;;;;;;12.20;65.30;;;;;;5060082;28;20003;-88
2021/05/21 23:18:46;;;;;;;;;;;12.20;65.30;;;;;;5059598;28;20019;-89
2021/05/21 23:21:12;;;;;;;;;;;12.20;65.20;;;;;;5061044;28;19919;-90
2021/05/21 23:23:38;;;;;;;;;;;12.30;65.20;;;;;;5060380;28;19908;-89
2021/05/21 23:26:05;;;;;;;;;;;12.30;65.20;;;;;;5060237;28;19909;-89
2021/05/21 23:28:31;;;;;;;;;;;12.30;65.10;;;;;;5060357;28;19930;-89
2021/05/21 23:34:01;;;;;;;;;;;12.40;65.20;;;;;;5077258;28;20338;-88
2021/05/21 23:36:26;;;;;;;;;;;12.40;65.60;;;;;;5058830;28;19913;-90
2021/05/21 23:38:52;;;;;;;;;;;12.40;65.50;;;;;;5059488;28;19962;-89
2021/05/21 23:41:18;;;;;;;;;;;12.40;65.50;;;;;;5059668;28;19962;-88
2021/05/21 23:43:44;;;;;;;;;;;12.30;65.60;;;;;;5059396;28;20248;-89
2021/05/21 23:46:11;;;;;;;;;;;12.30;65.70;;;;;;5059643;28;19908;-88
2021/05/21 23:48:36;;;;;;;;;;;12.40;65.80;;;;;;5060217;28;20363;-88
2021/05/21 23:51:02;;;;;;;;;;;12.30;65.90;;;;;;5059047;28;19908;-88
2021/05/21 23:53:28;;;;;;;;;;;12.40;66.10;;;;;;5058437;28;19908;-90
2021/05/21 23:55:56;;;;;;;;;;;12.40;66.10;;;;;;5058992;28;19962;-88
2021/05/21 23:58:24;;;;;;;;;;;12.40;66.00;;;;;;5059095;28;19954;-89
